createdAt,value
2019-03-21T04:02:02.284Z,5.73
2019-03-21T04:04:31.366Z,6.30
2019-03-21T04:07:00.771Z,6.23
2019-03-21T04:09:29.879Z,5.67
2019-03-21T04:11:59.334Z,5.63
2019-03-21T04:14:28.443Z,6.13
2019-03-21T04:16:57.579Z,5.33
2019-03-21T04:19:26.723Z,5.93
2019-03-21T04:21:55.871Z,5.07
2019-03-21T04:24:25.008Z,6.43
2019-03-21T04:26:54.104Z,5.60
2019-03-21T04:29:23.513Z,5.50
2019-03-21T04:31:52.635Z,5.57
2019-03-21T04:34:22.101Z,5.57
2019-03-21T04:36:51.190Z,5.43
2019-03-21T04:39:21.409Z,5.50
2019-03-21T04:41:50.769Z,5.70
2019-03-21T04:44:19.994Z,6.03
2019-03-21T04:46:49.142Z,6.17
2019-03-21T04:49:18.233Z,6.33
2019-03-21T04:51:47.327Z,6.67
2019-03-21T04:54:16.800Z,6.57
2019-03-21T04:56:45.887Z,5.87
2019-03-21T04:59:14.983Z,6.50
2019-03-21T05:01:44.108Z,5.77
2019-03-21T05:04:14.091Z,6.30
2019-03-21T05:06:43.184Z,6.03
2019-03-21T05:09:15.562Z,5.30
2019-03-21T05:11:44.650Z,5.87
2019-03-21T05:14:14.082Z,6.10
2019-03-21T05:16:43.202Z,5.87
2019-03-21T05:19:12.285Z,5.83
2019-03-21T05:21:41.382Z,6.63
2019-03-21T05:24:10.539Z,5.40
2019-03-21T05:26:39.630Z,5.77
2019-03-21T05:29:09.086Z,5.80
2019-03-21T05:31:38.208Z,5.53
2019-03-21T05:34:07.585Z,5.00
2019-03-21T05:36:36.684Z,4.97
2019-03-21T05:39:08.282Z,5.37
2019-03-21T05:41:37.377Z,5.23
2019-03-21T05:44:13.689Z,5.63
2019-03-21T05:46:45.506Z,5.33
2019-03-21T05:49:14.610Z,5.67
2019-03-21T05:51:43.794Z,6.20
2019-03-21T05:54:12.946Z,5.97
2019-03-21T05:56:42.034Z,6.20
2019-03-21T05:59:13.431Z,5.37
2019-03-21T06:01:42.522Z,5.87
2019-03-21T06:04:11.954Z,5.63
2019-03-21T06:06:45.166Z,5.20
2019-03-21T06:09:16.442Z,5.30
2019-03-21T06:11:48.346Z,5.60
2019-03-21T06:14:17.770Z,5.93
2019-03-21T06:16:46.879Z,6.20
2019-03-21T06:19:55.878Z,6.47
2019-03-21T06:22:51.597Z,6.90
2019-03-21T06:25:36.143Z,7.00
2019-03-21T06:28:05.230Z,6.63
2019-03-21T06:30:34.338Z,7.00
2019-03-21T06:33:03.434Z,6.60
2019-03-21T06:35:32.615Z,6.17
2019-03-21T06:38:01.715Z,5.67
2019-03-21T06:40:30.806Z,5.90
2019-03-21T06:43:00.782Z,5.00
2019-03-21T06:45:29.898Z,6.50
2019-03-21T06:47:59.127Z,6.00
2019-03-21T06:50:28.219Z,6.90
2019-03-21T06:52:57.310Z,5.90
2019-03-21T06:55:26.414Z,6.13
2019-03-21T06:57:55.774Z,5.17
2019-03-21T07:00:25.173Z,6.13
2019-03-21T07:02:54.351Z,6.13
2019-03-21T07:05:23.438Z,5.73
2019-03-21T07:07:52.571Z,5.80
2019-03-21T07:10:21.685Z,5.70
2019-03-21T07:12:50.793Z,5.00
2019-03-21T07:15:19.894Z,5.77
2019-03-21T07:17:48.998Z,5.43
2019-03-21T07:20:18.128Z,4.90
2019-03-21T07:22:47.562Z,4.80
2019-03-21T07:25:16.750Z,5.60
2019-03-21T07:27:45.832Z,4.43
2019-03-21T07:30:14.974Z,4.33
2019-03-21T07:32:44.086Z,4.60
2019-03-21T07:35:13.233Z,4.87
2019-03-21T07:37:42.362Z,4.60
2019-03-21T07:40:12.308Z,4.63
2019-03-21T07:42:41.702Z,4.60
2019-03-21T07:45:10.854Z,4.93
2019-03-21T07:47:39.967Z,5.23
2019-03-21T07:50:10.137Z,4.87
2019-03-21T07:52:39.236Z,4.70
2019-03-21T07:55:08.366Z,4.87
2019-03-21T07:57:37.481Z,4.67
2019-03-21T08:00:09.577Z,4.57
2019-03-21T08:02:38.706Z,5.00
2019-03-21T08:05:08.486Z,4.67
2019-03-21T08:07:37.638Z,4.53
2019-03-21T08:10:06.778Z,5.10
2019-03-21T08:12:35.911Z,4.50
2019-03-21T08:15:05.918Z,4.33
2019-03-21T08:17:35.010Z,4.53
2019-03-21T08:20:04.743Z,4.17
2019-03-21T08:22:33.875Z,4.37
2019-03-21T08:25:03.303Z,4.03
2019-03-21T08:27:32.490Z,3.87
2019-03-21T08:30:01.586Z,4.22
2019-03-21T08:32:30.681Z,4.50
2019-03-21T08:35:00.192Z,4.15
2019-03-21T08:37:29.487Z,3.87
2019-03-21T08:39:58.598Z,3.95
2019-03-21T08:42:27.694Z,4.97
2019-03-21T08:44:56.798Z,4.05
2019-03-21T08:47:25.915Z,4.75
2019-03-21T08:49:55.011Z,4.50
2019-03-21T08:52:24.182Z,5.12
2019-03-21T08:54:53.278Z,5.17
2019-03-21T08:57:22.371Z,5.40
2019-03-21T08:59:51.487Z,5.03
2019-03-21T09:02:20.578Z,4.97
2019-03-21T09:04:49.698Z,4.83
2019-03-21T09:07:18.797Z,5.17
2019-03-21T09:09:47.891Z,5.10
2019-03-21T09:12:17.002Z,4.55
2019-03-21T09:14:46.094Z,5.00
2019-03-21T09:17:15.238Z,5.03
2019-03-21T09:19:44.332Z,4.87
2019-03-21T09:22:15.879Z,4.17
2019-03-21T09:24:44.291Z,3.90
2019-03-21T09:27:13.408Z,4.20
2019-03-21T09:29:53.037Z,4.58
2019-03-21T09:32:13.684Z,5.15
2019-03-21T09:34:42.823Z,4.95
2019-03-21T09:37:11.934Z,4.03
2019-03-21T09:39:41.034Z,4.30
2019-03-21T09:42:10.155Z,5.03
2019-03-21T09:44:39.258Z,5.08
2019-03-21T09:47:08.354Z,5.17
2019-03-21T09:49:37.463Z,4.22
2019-03-21T09:52:06.563Z,4.45
2019-03-21T09:54:35.754Z,4.30
2019-03-21T09:57:04.859Z,4.67
2019-03-21T09:59:33.957Z,4.62
2019-03-21T10:02:03.062Z,4.67
2019-03-21T10:04:32.151Z,3.83
2019-03-21T10:07:01.371Z,4.03
2019-03-21T10:09:30.851Z,4.08
2019-03-21T10:12:00.038Z,4.17
2019-03-21T10:14:29.234Z,4.45
2019-03-21T10:16:58.369Z,4.55
2019-03-21T10:19:27.478Z,4.25
2019-03-21T10:21:56.593Z,4.25
2019-03-21T10:24:25.713Z,3.95
2019-03-21T10:26:54.805Z,4.12
2019-03-21T10:29:23.914Z,4.37
2019-03-21T10:31:53.012Z,4.90
2019-03-21T10:34:22.202Z,4.40
2019-03-21T10:36:51.427Z,3.90
2019-03-21T10:39:20.518Z,4.25
2019-03-21T10:41:49.650Z,4.25
2019-03-21T10:44:19.112Z,3.55
2019-03-21T10:46:48.211Z,3.98
2019-03-21T10:49:17.314Z,4.30
2019-03-21T10:51:54.949Z,4.40
2019-03-21T10:54:17.250Z,3.70
2019-03-21T10:56:46.390Z,4.08
2019-03-21T10:59:15.477Z,4.10
2019-03-21T11:01:44.572Z,4.00
2019-03-21T11:04:13.680Z,3.40
2019-03-21T11:06:42.765Z,4.10
2019-03-21T11:09:11.878Z,3.65
2019-03-21T11:11:41.320Z,3.72
2019-03-21T11:14:10.883Z,3.83
2019-03-21T11:16:39.978Z,3.75
2019-03-21T11:19:09.080Z,3.80
2019-03-21T11:21:38.191Z,4.42
2019-03-21T11:24:07.612Z,4.30
2019-03-21T11:26:36.774Z,4.03
2019-03-21T11:29:05.866Z,4.35
2019-03-21T11:31:34.963Z,3.67
2019-03-21T11:34:04.111Z,3.65
2019-03-21T11:36:38.280Z,4.08
2019-03-21T11:39:06.092Z,3.70
2019-03-21T11:41:35.214Z,4.62
2019-03-21T11:44:04.325Z,3.92
2019-03-21T11:46:33.416Z,3.37
2019-03-21T11:49:02.511Z,4.15
2019-03-21T11:51:31.615Z,3.83
2019-03-21T11:54:00.718Z,3.85
2019-03-21T11:56:29.834Z,3.60
2019-03-21T11:58:58.943Z,3.25
2019-03-21T12:01:28.035Z,4.05
2019-03-21T12:03:57.262Z,3.77
2019-03-21T12:06:26.369Z,4.10
2019-03-21T12:08:55.457Z,4.03
2019-03-21T12:11:24.639Z,3.70
2019-03-21T12:13:53.790Z,3.60
2019-03-21T12:16:22.914Z,3.77
2019-03-21T12:18:52.019Z,4.17
2019-03-21T12:21:21.186Z,3.47
2019-03-21T12:23:50.637Z,3.58
2019-03-21T12:26:19.822Z,3.47
2019-03-21T12:28:48.972Z,3.62
2019-03-21T12:31:18.107Z,3.55
2019-03-21T12:33:47.203Z,3.85
2019-03-21T12:36:16.334Z,4.22
2019-03-21T12:38:45.413Z,3.40
2019-03-21T12:41:14.850Z,3.92
2019-03-21T12:43:43.942Z,3.92
2019-03-21T12:46:13.037Z,3.70
2019-03-21T12:48:42.514Z,3.67
2019-03-21T12:51:12.421Z,3.67
2019-03-21T12:53:41.839Z,3.85
2019-03-21T12:56:10.935Z,4.35
2019-03-21T12:58:40.302Z,4.15
2019-03-21T13:01:09.454Z,4.53
2019-03-21T13:03:38.547Z,3.90
2019-03-21T13:06:07.667Z,3.80
2019-03-21T13:08:36.762Z,3.33
2019-03-21T13:11:05.939Z,3.77
2019-03-21T13:13:35.422Z,3.77
2019-03-21T13:16:04.574Z,3.42
2019-03-21T13:18:33.729Z,3.42
2019-03-21T13:21:02.862Z,3.60
2019-03-21T13:23:31.981Z,3.08
2019-03-21T13:26:01.198Z,3.30
2019-03-21T13:28:30.295Z,3.25
2019-03-21T13:30:59.426Z,3.47
2019-03-21T13:33:28.519Z,3.10
2019-03-21T13:35:57.615Z,3.58
2019-03-21T13:38:26.723Z,3.60
2019-03-21T13:40:55.826Z,3.35
2019-03-21T13:43:25.279Z,4.17
2019-03-21T13:45:54.782Z,3.00
2019-03-21T13:48:23.987Z,3.05
2019-03-21T13:50:53.170Z,3.22
2019-03-21T13:53:22.263Z,2.98
2019-03-21T13:55:51.670Z,3.00
2019-03-21T13:58:20.766Z,2.90
2019-03-21T14:00:49.862Z,3.37
2019-03-21T14:03:25.123Z,2.58
2019-03-21T14:05:49.802Z,2.95
2019-03-21T14:08:19.020Z,3.52
2019-03-21T14:10:48.111Z,2.98
2019-03-21T14:13:17.226Z,3.22
2019-03-21T14:15:46.367Z,3.60
2019-03-21T14:18:15.538Z,3.20
2019-03-21T14:20:44.665Z,3.15
2019-03-21T14:23:17.429Z,3.10
2019-03-21T14:25:44.886Z,3.23
2019-03-21T14:28:14.019Z,3.43
2019-03-21T14:30:43.214Z,3.27
2019-03-21T14:33:12.380Z,2.87
2019-03-21T14:35:41.494Z,3.10
2019-03-21T14:38:13.174Z,3.40
2019-03-21T14:40:41.483Z,4.60
2019-03-21T14:43:10.677Z,2.93
2019-03-21T14:45:39.763Z,3.47
2019-03-21T14:48:08.887Z,2.80
2019-03-21T14:50:38.166Z,3.00
2019-03-21T14:53:07.274Z,2.63
2019-03-21T14:55:47.000Z,3.50
2019-03-21T14:58:07.581Z,3.03
2019-03-21T15:00:36.694Z,3.00
2019-03-21T15:03:05.815Z,2.60
2019-03-21T15:05:35.018Z,2.80
2019-03-21T15:08:04.118Z,3.43
2019-03-21T15:10:33.223Z,3.10
2019-03-21T15:13:02.340Z,2.50
2019-03-21T15:15:32.314Z,3.20
2019-03-21T15:18:01.548Z,2.90
2019-03-21T15:20:30.675Z,2.63
2019-03-21T15:22:59.790Z,3.10
2019-03-21T15:25:28.899Z,2.27
2019-03-21T15:27:58.003Z,2.40
2019-03-21T15:30:27.120Z,2.10
2019-03-21T15:32:56.268Z,2.20
2019-03-21T15:35:25.384Z,2.30
2019-03-21T15:37:54.478Z,2.83
2019-03-21T15:40:23.582Z,2.40
2019-03-21T15:42:52.715Z,2.80
2019-03-21T15:45:23.629Z,2.43
2019-03-21T15:47:52.711Z,2.90
2019-03-21T15:50:37.803Z,2.33
2019-03-21T15:53:06.535Z,2.70
2019-03-21T15:55:36.082Z,2.53
2019-03-21T15:58:05.242Z,2.90
2019-03-21T16:00:38.952Z,2.50
2019-03-21T16:03:08.235Z,2.53
2019-03-21T16:05:37.694Z,2.47
2019-03-21T16:08:08.996Z,2.70
2019-03-21T16:10:37.976Z,2.50
2019-03-21T16:13:08.286Z,2.23
2019-03-21T16:15:37.527Z,3.13
2019-03-21T16:18:26.073Z,2.57
2019-03-21T16:20:55.241Z,2.90
2019-03-21T16:23:24.342Z,2.57
2019-03-21T16:25:53.480Z,2.57
2019-03-21T16:28:22.587Z,2.70
2019-03-21T16:30:52.217Z,3.10
2019-03-21T16:33:21.350Z,2.93
2019-03-21T16:35:50.482Z,3.20
2019-03-21T16:38:19.614Z,3.23
2019-03-21T16:40:48.758Z,2.97
2019-03-21T16:43:17.918Z,2.80
2019-03-21T16:45:47.316Z,3.00
2019-03-21T16:48:16.501Z,3.30
2019-03-21T16:50:45.620Z,4.13
2019-03-21T16:53:14.866Z,3.97
2019-03-21T16:55:43.998Z,3.40
2019-03-21T16:58:13.108Z,4.13
2019-03-21T17:00:42.213Z,4.93
2019-03-21T17:03:11.338Z,4.90
2019-03-21T17:05:40.453Z,4.60
2019-03-21T17:08:11.661Z,4.20
2019-03-21T17:10:40.797Z,4.00
2019-03-21T17:13:10.270Z,4.37
2019-03-21T17:15:39.876Z,4.23
2019-03-21T17:18:08.971Z,4.23
2019-03-21T17:20:38.118Z,5.40
2019-03-21T17:23:07.273Z,4.80
2019-03-21T17:25:36.394Z,4.67
2019-03-21T17:28:05.527Z,4.50
2019-03-21T17:30:34.638Z,5.10
2019-03-21T17:33:03.771Z,4.43
2019-03-21T17:35:33.727Z,4.77
2019-03-21T17:38:02.827Z,4.43
2019-03-21T17:40:31.964Z,4.87
2019-03-21T17:43:01.063Z,5.07
2019-03-21T17:45:30.163Z,4.73
2019-03-21T17:47:59.314Z,4.60
2019-03-21T17:50:28.438Z,3.90
2019-03-21T17:52:57.539Z,4.43
2019-03-21T17:55:26.686Z,4.83
2019-03-21T17:57:55.813Z,5.13
2019-03-21T18:00:27.529Z,5.27
2019-03-21T18:02:56.663Z,4.70
2019-03-21T18:05:25.775Z,5.23
2019-03-21T18:07:54.874Z,4.37
2019-03-21T18:10:31.111Z,4.70
2019-03-21T18:13:00.317Z,4.97
2019-03-21T18:15:29.421Z,4.80
2019-03-21T18:17:58.550Z,5.37
2019-03-21T18:20:27.690Z,4.53
2019-03-21T18:22:56.815Z,5.30
2019-03-21T18:25:26.142Z,5.57
2019-03-21T18:27:55.246Z,4.90
2019-03-21T18:30:27.313Z,5.60
2019-03-21T18:32:56.522Z,5.20
2019-03-21T18:35:25.853Z,5.00
2019-03-21T18:37:54.971Z,5.50
2019-03-21T18:40:24.103Z,4.60
2019-03-21T18:42:53.212Z,5.43
2019-03-21T18:45:22.315Z,4.77
2019-03-21T18:47:51.454Z,5.13
2019-03-21T18:50:20.567Z,6.07
2019-03-21T18:52:49.713Z,8.97
2019-03-21T18:55:18.854Z,10.80
2019-03-21T18:57:47.954Z,8.87
2019-03-21T19:00:17.179Z,10.20
2019-03-21T19:02:46.414Z,8.13
2019-03-21T19:05:15.519Z,8.23
2019-03-21T19:07:44.671Z,7.80
2019-03-21T19:10:13.823Z,7.20
2019-03-21T19:12:42.959Z,7.53
2019-03-21T19:15:12.261Z,7.33
2019-03-21T19:17:41.427Z,6.63
2019-03-21T19:20:10.778Z,6.53
2019-03-21T19:22:39.923Z,6.50
2019-03-21T19:25:17.743Z,7.40
2019-03-21T19:27:40.083Z,6.87
2019-03-21T19:30:09.535Z,5.90
2019-03-21T19:32:38.682Z,6.63
2019-03-21T19:35:07.855Z,6.53
2019-03-21T19:37:37.086Z,7.23
2019-03-21T19:40:08.102Z,6.17
2019-03-21T19:42:37.481Z,7.07
2019-03-21T19:45:08.547Z,6.67
2019-03-21T19:47:37.689Z,6.53
2019-03-21T19:50:08.322Z,7.10
2019-03-21T19:52:37.554Z,7.33
2019-03-21T19:55:06.761Z,7.97
2019-03-21T19:57:35.952Z,7.50
2019-03-21T20:00:06.779Z,7.00
2019-03-21T20:02:38.163Z,6.57
2019-03-21T20:05:07.328Z,7.87
2019-03-21T20:07:36.450Z,7.33
2019-03-21T20:10:06.377Z,6.97
2019-03-21T20:12:36.700Z,7.63
2019-03-21T20:15:06.911Z,6.70
2019-03-21T20:17:36.755Z,9.53
2019-03-21T20:20:07.066Z,7.87
2019-03-21T20:22:36.166Z,7.70
2019-03-21T20:25:06.370Z,7.50
2019-03-21T20:27:35.486Z,7.73
2019-03-21T20:30:05.899Z,7.63
2019-03-21T20:32:35.027Z,7.90
2019-03-21T20:35:04.697Z,8.33
2019-03-21T20:37:33.803Z,9.23
2019-03-21T20:40:03.176Z,9.20
2019-03-21T20:42:32.312Z,9.50
2019-03-21T20:45:06.351Z,9.60
2019-03-21T20:47:38.507Z,9.43
2019-03-21T20:50:07.859Z,10.20
2019-03-21T20:52:36.996Z,10.37
2019-03-21T20:55:06.539Z,10.50
2019-03-21T20:57:35.643Z,8.57
2019-03-21T21:00:06.293Z,10.23
2019-03-21T21:02:35.387Z,9.70
2019-03-21T21:05:04.603Z,10.13
2019-03-21T21:07:33.756Z,10.87
2019-03-21T21:10:02.875Z,10.43
2019-03-21T21:12:32.018Z,10.33
2019-03-21T21:15:01.174Z,10.03
2019-03-21T21:17:30.686Z,10.17
2019-03-21T21:19:59.783Z,9.80
2019-03-21T21:22:28.905Z,10.13
2019-03-21T21:24:58.002Z,10.47
2019-03-21T21:27:27.102Z,11.03
2019-03-21T21:29:56.234Z,11.33
2019-03-21T21:32:25.335Z,11.00
2019-03-21T21:34:54.847Z,10.77
2019-03-21T21:37:23.998Z,11.17
2019-03-21T21:39:53.106Z,12.50
2019-03-21T21:42:22.258Z,12.33
2019-03-21T21:44:51.483Z,12.83
2019-03-21T21:47:20.656Z,12.43
2019-03-21T21:49:49.755Z,11.90
2019-03-21T21:52:18.887Z,12.47
2019-03-21T21:54:49.228Z,13.50
2019-03-21T21:57:18.547Z,12.97
2019-03-21T21:59:47.672Z,13.50
2019-03-21T22:02:16.765Z,13.90
2019-03-21T22:04:45.896Z,14.03
2019-03-21T22:07:15.082Z,14.60
2019-03-21T22:09:44.182Z,13.40
2019-03-21T22:12:13.610Z,12.70
2019-03-21T22:14:42.747Z,14.10
2019-03-21T22:17:11.859Z,12.07
2019-03-21T22:19:40.947Z,12.93
2019-03-21T22:22:10.079Z,13.23
2019-03-21T22:24:39.184Z,11.33
2019-03-21T22:27:08.314Z,12.63
2019-03-21T22:29:37.455Z,12.97
2019-03-21T22:32:06.559Z,12.60
2019-03-21T22:34:35.682Z,12.80
2019-03-21T22:37:04.786Z,11.87
2019-03-21T22:39:33.919Z,13.27
2019-03-21T22:42:03.029Z,12.63
2019-03-21T22:44:32.149Z,11.87
2019-03-21T22:47:01.287Z,12.37
2019-03-21T22:49:30.387Z,10.50
2019-03-21T22:51:59.519Z,11.17
2019-03-21T22:54:28.615Z,11.43
2019-03-21T22:56:57.730Z,10.57
2019-03-21T22:59:27.215Z,10.87
